Grover, PA

1:14 PM EDT on July 06, 2015 (GMT -0400)
Southside Rd | | Change Station
CLOSE
Current Station
Personal Weather Station
Location: Canton, PA
Elevation: 1335 ft
Nearby Weather Stations

Elev 1335 ft 41.65 °N, 76.83 °W | Updated 12 seconds ago

Overcast
Overcast
75.6 °F
Feels Like 76 °F
N
5.4
Wind Variable Wind from SE
Gusts 5.4 mph

Today
High -- | Low -- °F
--% Chance of Precip.
Yesterday
High -- | Low -- °F
Precip. -- in
5:39 AM 8:44 PM
Waning Gibbous, 74% visible
Pressure 30.11 in
Visibility 10.0 miles
Clouds Mostly Cloudy 1800 ft
Mostly Cloudy 7000 ft
Heat Index 76 °F
Dew Point 71 °F
Humidity 85%
Rainfall 0.00 in
Snow Depth Not available.
UV 6 out of 12
Pollen 3.00 out of 12
Air Quality Not available.
Flu Activity Not available.
METAR KIPT 061654Z 00000KT 10SM BKN018 BKN070 26/19 A3011 RMK AO2 SLP194 T02560194

More Conditions Fewer Conditions

Pressure 30.11 in
Visibility 10.0 miles
Clouds Mostly Cloudy 1800 ft
Mostly Cloudy 7000 ft
Heat Index 76 °F
Dew Point 71 °F
Humidity 85%
Rainfall 0.00 in
Snow Depth Not available.
UV 6 out of 12
Pollen 3.00 out of 12
Air Quality Not available.
Flu Activity Not available.
METAR KIPT 061654Z 00000KT 10SM BKN018 BKN070 26/19 A3011 RMK AO2 SLP194 T02560194

More Conditions Fewer Conditions

10-Day Weather Forecast

×

Almanac

Astronomy

Jul. 06, 2015 Rise Set
Actual Time
Civil Twilight
Nautical Twilight
Astronomical Twilight
Moon
Length of Visible Light
Length of Day
Tomorrow will be .
, % of the Moon is Illuminated

Today's Extremes

State Highs State Lows

Community

WunderPhotos

Upload Photos

1,835,604 photos uploaded!

WunderBlogs® & News

Nearby

Air Quality

  Air Quality AQ Index Pollutant
Not available.

Snow Depth

Station Depth Elevation

Earthquake Activity

City Distance Mag. Time & Date
Minimum magnitude displayed is 2.5.

Coastal Water Temperatures

Place Temperature

Stations

Nearby Weather Stations

Station Location Temp. Windchill Dew Point Humidity Wind Precip. Elev Updated Type